createdAt,value
2019-05-16T00:00:24.874Z,1016.87
2019-05-16T00:01:24.865Z,1016.90
2019-05-16T00:02:24.853Z,1016.86
2019-05-16T00:03:24.857Z,1016.85
2019-05-16T00:04:24.851Z,1016.85
2019-05-16T00:05:24.821Z,1016.79
2019-05-16T00:06:24.807Z,1016.77
2019-05-16T00:07:24.799Z,1016.80
2019-05-16T00:08:24.787Z,1016.76
2019-05-16T00:09:24.811Z,1016.76
2019-05-16T00:10:24.770Z,1016.73
2019-05-16T00:11:24.753Z,1016.71
2019-05-16T00:12:24.743Z,1016.67
2019-05-16T00:13:24.740Z,1016.69
2019-05-16T00:14:24.738Z,1016.67
2019-05-16T00:15:24.744Z,1016.62
2019-05-16T00:16:24.736Z,1016.62
2019-05-16T00:17:24.690Z,1016.60
2019-05-16T00:18:24.680Z,1016.63
2019-05-16T00:19:24.680Z,1016.55
2019-05-16T00:20:24.654Z,1016.58
2019-05-16T00:21:24.643Z,1016.57
2019-05-16T00:22:24.638Z,1016.58
2019-05-16T00:23:24.625Z,1016.47
2019-05-16T00:24:24.626Z,1016.46
2019-05-16T00:25:24.598Z,1016.46
2019-05-16T00:26:24.592Z,1016.43
2019-05-16T00:27:24.574Z,1016.41
2019-05-16T00:28:24.563Z,1016.37
2019-05-16T00:29:24.864Z,1016.42
2019-05-16T00:30:24.548Z,1016.38
2019-05-16T00:31:24.537Z,1016.36
2019-05-16T00:32:24.518Z,1016.37
2019-05-16T00:33:24.508Z,1016.31
2019-05-16T00:34:24.504Z,1016.30
2019-05-16T00:35:24.512Z,1016.26
2019-05-16T00:36:24.482Z,1016.30
2019-05-16T00:37:24.468Z,1016.25
2019-05-16T00:38:24.452Z,1016.19
2019-05-16T00:39:24.459Z,1016.27
2019-05-16T00:40:24.448Z,1016.17
2019-05-16T00:41:24.422Z,1016.17
2019-05-16T00:42:24.442Z,1016.19
2019-05-16T00:43:24.408Z,1016.17
2019-05-16T00:44:24.411Z,1016.12
2019-05-16T00:45:24.404Z,1016.16
2019-05-16T00:46:24.372Z,1016.10
2019-05-16T00:47:24.354Z,1016.12
2019-05-16T00:48:24.342Z,1016.13
2019-05-16T00:49:24.336Z,1016.11
2019-05-16T00:50:24.335Z,1016.09
2019-05-16T00:51:24.319Z,1015.99
2019-05-16T00:52:24.298Z,1016.01
2019-05-16T00:53:24.290Z,1016.02
2019-05-16T00:54:24.285Z,1015.99
2019-05-16T00:55:24.282Z,1015.96
2019-05-16T00:56:24.258Z,1015.99
2019-05-16T00:57:24.249Z,1015.87
2019-05-16T00:58:24.270Z,1015.84
2019-05-16T00:59:24.230Z,1015.82
2019-05-16T01:00:24.226Z,1015.78
2019-05-16T01:01:24.205Z,1015.78
2019-05-16T01:02:24.187Z,1015.77
2019-05-16T01:03:24.175Z,1015.71
2019-05-16T01:04:24.169Z,1015.68
2019-05-16T01:05:24.181Z,1015.74
2019-05-16T01:06:24.148Z,1015.67
2019-05-16T01:07:24.175Z,1015.64
2019-05-16T01:08:24.122Z,1015.62
2019-05-16T01:09:24.112Z,1015.64
2019-05-16T01:10:24.113Z,1015.54
2019-05-16T01:11:24.093Z,1015.57
2019-05-16T01:12:24.079Z,1015.55
2019-05-16T01:13:24.089Z,1015.55
2019-05-16T01:14:24.053Z,1015.55
2019-05-16T01:15:24.065Z,1015.49
2019-05-16T01:16:24.031Z,1015.51
2019-05-16T01:17:24.027Z,1015.49
2019-05-16T01:18:24.014Z,1015.50
2019-05-16T01:19:24.013Z,1015.47
2019-05-16T01:20:23.999Z,1015.45
2019-05-16T01:21:24.011Z,1015.47
2019-05-16T01:22:23.963Z,1015.47
2019-05-16T01:23:23.955Z,1015.41
2019-05-16T01:24:23.949Z,1015.40
2019-05-16T01:25:23.949Z,1015.40
2019-05-16T01:26:23.946Z,1015.36
2019-05-16T01:27:23.913Z,1015.32
2019-05-16T01:28:23.899Z,1015.23
2019-05-16T01:29:23.889Z,1015.27
2019-05-16T01:30:23.897Z,1015.21
2019-05-16T01:31:23.879Z,1015.22
2019-05-16T01:32:23.905Z,1015.25
2019-05-16T01:33:23.845Z,1015.20
2019-05-16T01:34:23.833Z,1015.22
2019-05-16T01:35:23.843Z,1015.20
2019-05-16T01:36:36.108Z,1015.14
2019-05-16T01:37:24.795Z,1015.18
2019-05-16T01:38:23.794Z,1015.14
2019-05-16T01:39:23.816Z,1015.15
2019-05-16T01:40:23.783Z,1015.16
2019-05-16T01:41:23.772Z,1015.11
2019-05-16T01:42:23.744Z,1015.14
2019-05-16T01:43:23.732Z,1015.11
2019-05-16T01:44:23.722Z,1014.99
2019-05-16T01:45:23.778Z,1015.04
2019-05-16T01:46:23.702Z,1015.01
2019-05-16T01:47:23.692Z,1015.05
2019-05-16T01:48:23.687Z,1015.04
2019-05-16T01:49:23.665Z,1014.98
2019-05-16T01:50:23.672Z,1014.99
2019-05-16T01:51:23.673Z,1014.95
2019-05-16T01:52:23.652Z,1014.93
2019-05-16T01:53:23.624Z,1015.02
2019-05-16T01:54:23.612Z,1014.94
2019-05-16T01:55:23.632Z,1014.87
2019-05-16T01:56:23.586Z,1014.90
2019-05-16T01:57:23.592Z,1014.88
2019-05-16T01:58:23.564Z,1014.83
2019-05-16T01:59:23.555Z,1014.82
2019-05-16T02:00:25.859Z,1014.83
2019-05-16T02:01:24.545Z,1014.73
2019-05-16T02:02:23.520Z,1014.73
2019-05-16T02:03:23.520Z,1014.66
2019-05-16T02:04:23.498Z,1014.60
2019-05-16T02:05:23.488Z,1014.65
2019-05-16T02:06:23.496Z,1014.58
2019-05-16T02:07:23.468Z,1014.51
2019-05-16T02:08:23.462Z,1014.60
2019-05-16T02:09:23.443Z,1014.52
2019-05-16T02:10:23.457Z,1014.49
2019-05-16T02:11:23.449Z,1014.60
2019-05-16T02:12:23.428Z,1014.54
2019-05-16T02:13:23.456Z,1014.54
2019-05-16T02:14:23.390Z,1014.54
2019-05-16T02:15:23.378Z,1014.53
2019-05-16T02:16:23.375Z,1014.50
2019-05-16T02:17:23.356Z,1014.48
2019-05-16T02:18:23.359Z,1014.46
2019-05-16T02:19:23.331Z,1014.33
2019-05-16T02:20:23.331Z,1014.38
2019-05-16T02:21:23.329Z,1014.36
2019-05-16T02:22:23.297Z,1014.37
2019-05-16T02:23:23.288Z,1014.34
2019-05-16T02:24:23.333Z,1014.27
2019-05-16T02:25:23.269Z,1014.33
2019-05-16T02:26:23.272Z,1014.36
2019-05-16T02:27:23.246Z,1014.31
2019-05-16T02:28:29.554Z,1014.34
2019-05-16T02:29:24.251Z,1014.35
2019-05-16T02:30:23.249Z,1014.30
2019-05-16T02:31:23.218Z,1014.30
2019-05-16T02:32:23.192Z,1014.28
2019-05-16T02:33:23.177Z,1014.33
2019-05-16T02:34:23.161Z,1014.32
2019-05-16T02:35:23.160Z,1014.28
2019-05-16T02:36:23.182Z,1014.29
2019-05-16T02:37:29.157Z,1014.31
2019-05-16T02:38:24.123Z,1014.27
2019-05-16T02:39:23.135Z,1014.42
2019-05-16T02:40:23.100Z,1014.30
2019-05-16T02:41:23.097Z,1014.36
2019-05-16T02:42:23.091Z,1014.32
2019-05-16T02:43:26.176Z,1014.24
2019-05-16T02:44:24.545Z,1014.22
2019-05-16T02:45:24.479Z,1014.34
2019-05-16T02:46:23.049Z,1014.23
2019-05-16T02:47:23.021Z,1014.20
2019-05-16T02:48:23.031Z,1014.25
2019-05-16T02:49:23.011Z,1014.28
2019-05-16T02:50:23.042Z,1014.22
2019-05-16T02:51:23.004Z,1014.20
2019-05-16T02:52:22.978Z,1014.20
2019-05-16T02:53:22.957Z,1014.16
2019-05-16T02:54:22.945Z,1014.18
2019-05-16T02:55:22.963Z,1014.09
2019-05-16T02:56:22.949Z,1014.09
2019-05-16T02:57:22.911Z,1014.01
2019-05-16T02:58:23.762Z,1014.03
2019-05-16T02:59:22.887Z,1014.08
2019-05-16T03:00:22.879Z,1014.03
2019-05-16T03:01:22.887Z,1014.05
2019-05-16T03:02:22.923Z,1014.05
2019-05-16T03:03:22.844Z,1013.98
2019-05-16T03:04:22.835Z,1014.02
2019-05-16T03:05:22.841Z,1014.01
2019-05-16T03:06:22.809Z,1014.01
2019-05-16T03:07:36.777Z,1014.04
2019-05-16T03:08:23.794Z,1014.01
2019-05-16T03:09:22.793Z,1014.02
2019-05-16T03:10:22.767Z,1014.00
2019-05-16T03:11:22.774Z,1013.97
2019-05-16T03:12:22.762Z,1014.00
2019-05-16T03:13:22.732Z,1013.92
2019-05-16T03:14:22.721Z,1013.98
2019-05-16T03:15:22.708Z,1013.94
2019-05-16T03:16:22.704Z,1013.91
2019-05-16T03:17:22.728Z,1013.96
2019-05-16T03:18:22.684Z,1013.90
2019-05-16T03:19:22.674Z,1013.93
2019-05-16T03:20:22.658Z,1013.88
2019-05-16T03:21:22.649Z,1013.90
2019-05-16T03:22:22.667Z,1013.87
2019-05-16T03:23:22.628Z,1013.89
2019-05-16T03:24:22.610Z,1013.87
2019-05-16T03:25:22.617Z,1013.85
2019-05-16T03:26:22.595Z,1013.83
2019-05-16T03:27:22.574Z,1013.84
2019-05-16T03:28:22.607Z,1013.76
2019-05-16T03:29:22.564Z,1013.80
2019-05-16T03:30:24.019Z,1013.79
2019-05-16T03:31:24.698Z,1013.79
2019-05-16T03:32:24.345Z,1013.81
2019-05-16T03:33:30.879Z,1013.84
2019-05-16T03:34:25.900Z,1013.74
2019-05-16T03:35:24.495Z,1013.79
2019-05-16T03:36:25.185Z,1013.83
2019-05-16T03:37:24.878Z,1013.76
2019-05-16T03:38:22.491Z,1013.69
2019-05-16T03:39:22.448Z,1013.69
2019-05-16T03:40:22.433Z,1013.75
2019-05-16T03:41:22.423Z,1013.69
2019-05-16T03:42:22.410Z,1013.66
2019-05-16T03:43:22.444Z,1013.69
2019-05-16T03:44:22.385Z,1013.63
2019-05-16T03:45:22.385Z,1013.64
2019-05-16T03:46:22.383Z,1013.72
2019-05-16T03:47:22.356Z,1013.68
2019-05-16T03:48:22.365Z,1013.71
2019-05-16T03:49:22.334Z,1013.60
2019-05-16T03:50:22.341Z,1013.65
2019-05-16T03:51:22.331Z,1013.60
2019-05-16T03:52:22.315Z,1013.60
2019-05-16T03:53:22.304Z,1013.66
2019-05-16T03:54:22.277Z,1013.60
2019-05-16T03:55:22.271Z,1013.64
2019-05-16T03:56:22.271Z,1013.60
2019-05-16T03:57:22.251Z,1013.62
2019-05-16T03:58:22.822Z,1013.57
2019-05-16T03:59:22.275Z,1013.51
2019-05-16T04:00:22.216Z,1013.59
2019-05-16T04:01:22.203Z,1013.54
2019-05-16T04:02:22.186Z,1013.49
2019-05-16T04:03:22.209Z,1013.50
2019-05-16T04:04:22.171Z,1013.48
2019-05-16T04:05:22.154Z,1013.47
2019-05-16T04:06:22.392Z,1013.46
2019-05-16T04:07:22.155Z,1013.51
2019-05-16T04:08:25.006Z,1013.48
2019-05-16T04:09:22.111Z,1013.43
2019-05-16T04:10:22.112Z,1013.43
2019-05-16T04:11:23.270Z,1013.40
2019-05-16T04:12:22.080Z,1013.40
2019-05-16T04:13:22.427Z,1013.44
2019-05-16T04:14:22.090Z,1013.42
2019-05-16T04:15:22.043Z,1013.43
2019-05-16T04:16:22.032Z,1013.43
2019-05-16T04:17:22.022Z,1013.44
2019-05-16T04:18:22.586Z,1013.46
2019-05-16T04:19:22.015Z,1013.53
2019-05-16T04:20:21.992Z,1013.50
2019-05-16T04:21:22.277Z,1013.50
2019-05-16T04:22:21.969Z,1013.48
2019-05-16T04:23:22.059Z,1013.44
2019-05-16T04:24:21.975Z,1013.49
2019-05-16T04:25:21.931Z,1013.42
2019-05-16T04:26:22.117Z,1013.50
2019-05-16T04:27:21.912Z,1013.44
2019-05-16T04:28:22.569Z,1013.47
2019-05-16T04:29:21.891Z,1013.36
2019-05-16T04:30:22.224Z,1013.39
2019-05-16T04:31:22.264Z,1013.43
2019-05-16T04:32:21.863Z,1013.38
2019-05-16T04:33:22.591Z,1013.40
2019-05-16T04:34:21.869Z,1013.43
2019-05-16T04:35:21.824Z,1013.38
2019-05-16T04:36:21.816Z,1013.35
2019-05-16T04:37:26.026Z,1013.37
2019-05-16T04:38:34.948Z,1013.41
2019-05-16T04:39:22.793Z,1013.43
2019-05-16T04:40:22.150Z,1013.38
2019-05-16T04:41:21.784Z,1013.32
2019-05-16T04:42:21.752Z,1013.35
2019-05-16T04:43:22.606Z,1013.36
2019-05-16T04:44:21.746Z,1013.31
2019-05-16T04:45:21.714Z,1013.33
2019-05-16T04:46:21.813Z,1013.27
2019-05-16T04:47:21.731Z,1013.26
2019-05-16T04:48:22.764Z,1013.32
2019-05-16T04:49:21.692Z,1013.29
2019-05-16T04:50:21.673Z,1013.24
2019-05-16T04:51:22.172Z,1013.28
2019-05-16T04:52:21.988Z,1013.27
2019-05-16T04:53:21.993Z,1013.26
2019-05-16T04:54:21.880Z,1013.30
2019-05-16T04:55:21.608Z,1013.26
2019-05-16T04:56:22.034Z,1013.28
2019-05-16T04:57:21.589Z,1013.27
2019-05-16T04:58:23.819Z,1013.29
2019-05-16T04:59:21.576Z,1013.30
2019-05-16T05:00:21.610Z,1013.33
2019-05-16T05:01:21.848Z,1013.23
2019-05-16T05:02:21.566Z,1013.26
2019-05-16T05:03:21.534Z,1013.23
2019-05-16T05:04:21.603Z,1013.32
2019-05-16T05:05:21.785Z,1013.26
2019-05-16T05:06:21.502Z,1013.32
2019-05-16T05:07:21.484Z,1013.34
2019-05-16T05:08:22.495Z,1013.25
2019-05-16T05:09:21.471Z,1013.25
2019-05-16T05:10:21.451Z,1013.21
2019-05-16T05:11:21.811Z,1013.18
2019-05-16T05:12:21.453Z,1013.20
2019-05-16T05:13:22.531Z,1013.23
2019-05-16T05:14:21.418Z,1013.22
2019-05-16T05:15:21.531Z,1013.28
2019-05-16T05:16:21.397Z,1013.21
2019-05-16T05:17:21.375Z,1013.15
2019-05-16T05:18:21.799Z,1013.24
2019-05-16T05:19:21.357Z,1013.19
2019-05-16T05:20:21.351Z,1013.17
2019-05-16T05:21:21.326Z,1013.17
2019-05-16T05:22:21.323Z,1013.19
2019-05-16T05:23:21.431Z,1013.12
2019-05-16T05:24:21.402Z,1013.16
2019-05-16T05:25:21.283Z,1013.21
2019-05-16T05:26:21.299Z,1013.22
2019-05-16T05:27:21.257Z,1013.12
2019-05-16T05:28:21.544Z,1013.12
2019-05-16T05:29:21.251Z,1013.15
2019-05-16T05:30:21.233Z,1013.09
2019-05-16T05:31:24.709Z,1013.04
2019-05-16T05:32:21.209Z,1013.03
2019-05-16T05:33:21.467Z,1013.08
2019-05-16T05:34:21.203Z,1013.04
2019-05-16T05:35:21.181Z,1013.07
2019-05-16T05:36:21.299Z,1013.13
2019-05-16T05:37:21.154Z,1013.04
2019-05-16T05:38:21.724Z,1013.01
2019-05-16T05:39:21.144Z,1013.03
2019-05-16T05:40:21.139Z,1013.01
2019-05-16T05:41:21.116Z,1013.02
2019-05-16T05:42:21.101Z,1013.08
2019-05-16T05:43:21.732Z,1013.01
2019-05-16T05:44:21.097Z,1013.02
2019-05-16T05:45:21.079Z,1013.03
2019-05-16T05:46:21.070Z,1013.00
2019-05-16T05:47:21.055Z,1013.01
2019-05-16T05:48:21.897Z,1012.95
2019-05-16T05:49:21.042Z,1013.00
2019-05-16T05:50:21.013Z,1012.99
2019-05-16T05:51:21.009Z,1012.94
2019-05-16T05:52:21.014Z,1013.02
2019-05-16T05:53:21.297Z,1013.06
2019-05-16T05:54:21.011Z,1013.06
2019-05-16T05:55:20.960Z,1013.08
2019-05-16T05:56:20.950Z,1013.05
2019-05-16T05:57:21.032Z,1013.12
2019-05-16T05:58:21.085Z,1013.11
2019-05-16T05:59:20.931Z,1013.10
2019-05-16T06:00:21.261Z,1013.10
2019-05-16T06:01:20.931Z,1013.12
2019-05-16T06:02:20.889Z,1013.11
2019-05-16T06:03:22.398Z,1013.10
2019-05-16T06:04:20.879Z,1013.08
2019-05-16T06:05:20.850Z,1013.12
2019-05-16T06:06:21.248Z,1013.09
2019-05-16T06:07:20.830Z,1013.09
2019-05-16T06:08:20.818Z,1013.06
2019-05-16T06:09:28.310Z,1013.07
2019-05-16T06:10:21.820Z,1013.00
2019-05-16T06:11:20.787Z,1013.00
2019-05-16T06:12:21.397Z,1013.01
2019-05-16T06:13:21.150Z,1013.09
2019-05-16T06:14:21.405Z,1013.08
2019-05-16T06:15:20.744Z,1013.06
2019-05-16T06:16:20.752Z,1013.11
2019-05-16T06:17:20.762Z,1013.09
2019-05-16T06:18:20.724Z,1013.02
2019-05-16T06:19:20.749Z,1013.05
2019-05-16T06:20:20.697Z,1013.02
2019-05-16T06:21:20.684Z,1013.04
2019-05-16T06:22:20.694Z,1013.07
2019-05-16T06:23:21.124Z,1013.06
2019-05-16T06:24:20.677Z,1013.00
2019-05-16T06:25:22.895Z,1013.00
2019-05-16T06:26:20.742Z,1013.00
2019-05-16T06:27:21.060Z,1012.99
2019-05-16T06:28:21.253Z,1012.99
2019-05-16T06:29:20.626Z,1012.95
2019-05-16T06:30:21.293Z,1012.88
2019-05-16T06:31:22.169Z,1012.99
2019-05-16T06:32:20.577Z,1012.93
2019-05-16T06:33:20.565Z,1012.92
2019-05-16T06:34:21.061Z,1012.85
2019-05-16T06:35:23.945Z,1012.82
2019-05-16T06:36:20.637Z,1012.70
2019-05-16T06:37:20.699Z,1012.80
2019-05-16T06:38:21.232Z,1012.81
2019-05-16T06:39:20.477Z,1012.82
2019-05-16T06:40:20.477Z,1012.80
2019-05-16T06:41:20.455Z,1012.87
2019-05-16T06:42:20.704Z,1012.86
2019-05-16T06:43:20.782Z,1012.83
2019-05-16T06:44:20.454Z,1012.92
2019-05-16T06:45:20.673Z,1012.87
2019-05-16T06:46:20.408Z,1012.87
2019-05-16T06:47:22.981Z,1012.92
2019-05-16T06:48:21.269Z,1012.91
2019-05-16T06:49:20.368Z,1012.92
2019-05-16T06:50:20.958Z,1012.89
2019-05-16T06:51:20.341Z,1012.82
2019-05-16T06:52:20.362Z,1012.86
2019-05-16T06:53:20.907Z,1012.81
2019-05-16T06:54:20.812Z,1012.81
2019-05-16T06:55:20.619Z,1012.84
2019-05-16T06:56:20.305Z,1012.86
2019-05-16T06:57:20.704Z,1012.88
2019-05-16T06:58:22.193Z,1012.84
2019-05-16T06:59:20.387Z,1012.81
2019-05-16T07:00:20.985Z,1012.77
2019-05-16T07:01:20.817Z,1012.81
2019-05-16T07:02:30.430Z,1012.74
2019-05-16T07:03:21.214Z,1012.73
2019-05-16T07:04:20.258Z,1012.74
2019-05-16T07:05:20.941Z,1012.72
2019-05-16T07:06:45.668Z,1012.68
2019-05-16T07:07:21.171Z,1012.66
2019-05-16T07:08:20.833Z,1012.68
2019-05-16T07:09:20.689Z,1012.67
2019-05-16T07:10:20.478Z,1012.62
2019-05-16T07:11:20.317Z,1012.65
2019-05-16T07:12:20.345Z,1012.61
2019-05-16T07:13:20.116Z,1012.63
2019-05-16T07:14:22.877Z,1012.65
2019-05-16T07:15:20.725Z,1012.70
2019-05-16T07:16:20.703Z,1012.61
2019-05-16T07:17:20.342Z,1012.64
2019-05-16T07:18:21.423Z,1012.66
2019-05-16T07:19:20.771Z,1012.60
2019-05-16T07:20:20.970Z,1012.63
2019-05-16T07:21:20.374Z,1012.60
2019-05-16T07:22:20.641Z,1012.61
2019-05-16T07:23:21.050Z,1012.59
2019-05-16T07:24:19.984Z,1012.57
2019-05-16T07:25:20.803Z,1012.61
2019-05-16T07:26:20.499Z,1012.55
2019-05-16T07:27:21.846Z,1012.62
2019-05-16T07:28:20.955Z,1012.61
2019-05-16T07:29:20.353Z,1012.61
2019-05-16T07:30:20.091Z,1012.57
2019-05-16T07:31:22.440Z,1012.61
2019-05-16T07:32:20.026Z,1012.66
2019-05-16T07:33:21.175Z,1012.63
2019-05-16T07:34:20.655Z,1012.66
2019-05-16T07:35:20.519Z,1012.58
2019-05-16T07:36:20.865Z,1012.63
2019-05-16T07:37:20.192Z,1012.59
2019-05-16T07:38:20.525Z,1012.55
2019-05-16T07:39:20.097Z,1012.55
2019-05-16T07:40:26.426Z,1012.59
2019-05-16T07:41:20.839Z,1012.58
2019-05-16T07:42:20.141Z,1012.58
2019-05-16T07:43:20.538Z,1012.56
2019-05-16T07:44:20.860Z,1012.55
2019-05-16T07:45:20.381Z,1012.55
2019-05-16T07:46:20.633Z,1012.51
2019-05-16T07:47:20.302Z,1012.47
2019-05-16T07:48:21.493Z,1012.47
2019-05-16T07:49:19.830Z,1012.50
2019-05-16T07:50:20.338Z,1012.46
2019-05-16T07:51:20.567Z,1012.51
2019-05-16T07:52:20.853Z,1012.46
2019-05-16T07:53:21.386Z,1012.43
2019-05-16T07:54:21.415Z,1012.50
2019-05-16T07:55:20.803Z,1012.50
2019-05-16T07:56:20.358Z,1012.50
2019-05-16T07:57:22.663Z,1012.51
2019-05-16T07:58:21.680Z,1012.53
2019-05-16T07:59:20.457Z,1012.51
2019-05-16T08:00:21.536Z,1012.51
2019-05-16T08:01:20.095Z,1012.44
2019-05-16T08:02:20.805Z,1012.50
2019-05-16T08:03:20.041Z,1012.44
2019-05-16T08:04:19.919Z,1012.40
2019-05-16T08:05:21.089Z,1012.34
2019-05-16T08:06:20.089Z,1012.38
2019-05-16T08:07:20.089Z,1012.33
2019-05-16T08:08:23.335Z,1012.34
2019-05-16T08:09:21.116Z,1012.34
2019-05-16T08:10:35.864Z,1012.34
2019-05-16T08:11:23.521Z,1012.39
2019-05-16T08:12:25.515Z,1012.38
2019-05-16T08:13:21.323Z,1012.31
2019-05-16T08:14:21.274Z,1012.29
2019-05-16T08:15:21.231Z,1012.31
2019-05-16T08:16:20.747Z,1012.30
2019-05-16T08:17:21.662Z,1012.36
2019-05-16T08:18:21.472Z,1012.37
2019-05-16T08:19:20.328Z,1012.37
2019-05-16T08:20:21.398Z,1012.42
2019-05-16T08:21:20.235Z,1012.42
2019-05-16T08:22:22.187Z,1012.42
2019-05-16T08:23:21.896Z,1012.42
2019-05-16T08:24:20.519Z,1012.29
2019-05-16T08:25:20.374Z,1012.31
2019-05-16T08:26:21.995Z,1012.21
2019-05-16T08:27:20.828Z,1012.22
2019-05-16T08:28:21.483Z,1012.27
2019-05-16T08:29:21.992Z,1012.20
2019-05-16T08:30:20.964Z,1012.24
2019-05-16T08:31:21.463Z,1012.22
2019-05-16T08:32:23.063Z,1012.30
2019-05-16T08:34:20.918Z,1012.32
2019-05-16T08:35:21.133Z,1012.30
2019-05-16T08:36:21.010Z,1012.32
2019-05-16T08:38:21.463Z,1012.34
2019-05-16T08:39:21.458Z,1012.30
2019-05-16T08:40:21.371Z,1012.25
2019-05-16T08:41:22.149Z,1012.32
2019-05-16T08:42:20.970Z,1012.27
2019-05-16T08:43:21.780Z,1012.21
2019-05-16T08:44:21.530Z,1012.18
2019-05-16T08:45:21.199Z,1012.23
2019-05-16T08:46:20.747Z,1012.26
2019-05-16T08:47:21.292Z,1012.22
2019-05-16T08:48:23.095Z,1012.21
2019-05-16T08:49:22.153Z,1012.16
2019-05-16T08:50:11.556Z,1012.31
2019-05-16T08:50:21.664Z,1012.14
2019-05-16T08:51:22.348Z,1012.18
2019-05-16T08:52:22.432Z,1012.14
2019-05-16T08:53:21.604Z,1012.21
2019-05-16T08:54:21.412Z,1012.20
2019-05-16T08:55:21.752Z,1012.22
2019-05-16T08:56:22.043Z,1012.21
2019-05-16T08:57:27.557Z,1012.11
2019-05-16T08:58:22.543Z,1012.19
2019-05-16T08:59:21.461Z,1012.23
2019-05-16T09:00:21.783Z,1012.18
2019-05-16T09:01:21.650Z,1012.20
2019-05-16T09:02:22.115Z,1012.19
2019-05-16T09:03:22.217Z,1012.18
2019-05-16T09:04:23.890Z,1012.20
2019-05-16T09:05:22.706Z,1012.12
2019-05-16T09:06:22.589Z,1012.15
2019-05-16T09:07:22.752Z,1012.10
2019-05-16T09:08:18.868Z,1012.15
2019-05-16T09:09:44.065Z,1012.14
2019-05-16T09:10:35.110Z,1012.26
2019-05-16T09:10:50.027Z,1012.15
2019-05-16T09:12:19.825Z,1012.06
2019-05-16T09:13:18.812Z,1012.07
2019-05-16T09:14:18.785Z,1012.03
2019-05-16T09:15:18.812Z,1011.99
2019-05-16T09:16:18.763Z,1012.06
2019-05-16T09:17:18.754Z,1012.04
2019-05-16T09:18:18.766Z,1012.08
2019-05-16T09:18:37.937Z,1012.09
2019-05-16T09:19:18.732Z,1012.05
2019-05-16T09:20:18.750Z,1012.07
2019-05-16T09:21:18.731Z,1012.02
2019-05-16T09:22:18.700Z,1011.97
2019-05-16T09:23:18.707Z,1011.97
2019-05-16T09:24:18.679Z,1011.92
2019-05-16T09:25:18.845Z,1011.94
2019-05-16T09:26:19.781Z,1011.94
2019-05-16T09:27:18.701Z,1011.87
2019-05-16T09:28:18.685Z,1011.93
2019-05-16T09:29:18.621Z,1011.93
2019-05-16T09:30:18.611Z,1011.97
2019-05-16T09:31:18.603Z,1011.98
2019-05-16T09:32:28.325Z,1012.01
2019-05-16T09:33:19.592Z,1012.01
2019-05-16T09:34:18.569Z,1011.96
2019-05-16T09:35:18.587Z,1011.97
2019-05-16T09:36:18.538Z,1011.99
2019-05-16T09:37:18.566Z,1011.94
2019-05-16T09:38:23.503Z,1012.01
2019-05-16T09:39:19.528Z,1011.89
2019-05-16T09:40:18.493Z,1011.89
2019-05-16T09:41:18.486Z,1011.88
2019-05-16T09:42:18.474Z,1011.88
2019-05-16T09:43:18.467Z,1011.91
2019-05-16T09:44:18.668Z,1011.87
2019-05-16T09:45:18.511Z,1011.82
2019-05-16T09:46:18.435Z,1011.82
2019-05-16T09:47:18.425Z,1011.77
2019-05-16T09:48:19.135Z,1011.76
2019-05-16T09:49:24.141Z,1011.83
2019-05-16T09:50:19.390Z,1011.78
2019-05-16T09:51:21.250Z,1011.73
2019-05-16T09:52:18.368Z,1011.75
2019-05-16T09:53:18.369Z,1011.78
2019-05-16T09:54:18.389Z,1011.84
2019-05-16T09:55:18.334Z,1011.87
2019-05-16T09:56:18.367Z,1011.82
2019-05-16T09:57:18.351Z,1011.82
2019-05-16T09:58:18.736Z,1011.86
2019-05-16T09:59:18.307Z,1011.97
2019-05-16T10:00:18.285Z,1011.97
2019-05-16T10:01:18.267Z,1011.93
2019-05-16T10:02:18.294Z,1011.94
2019-05-16T10:03:22.477Z,1011.91
2019-05-16T10:04:18.266Z,1011.93
2019-05-16T10:05:18.226Z,1011.89
2019-05-16T10:06:19.199Z,1011.88
2019-05-16T10:07:18.237Z,1011.92
2019-05-16T10:08:18.188Z,1011.88
2019-05-16T10:09:18.204Z,1011.94
2019-05-16T10:10:18.172Z,1011.88
2019-05-16T10:11:18.412Z,1011.86
2019-05-16T10:12:18.776Z,1011.81
2019-05-16T10:13:18.523Z,1011.80
2019-05-16T10:14:18.186Z,1011.81
2019-05-16T10:15:18.130Z,1011.77
2019-05-16T10:16:18.132Z,1011.75
2019-05-16T10:17:18.100Z,1011.77
2019-05-16T10:18:18.103Z,1011.70
2019-05-16T10:19:18.089Z,1011.64
2019-05-16T10:20:18.062Z,1011.73
2019-05-16T10:21:20.669Z,1011.68
2019-05-16T10:22:18.100Z,1011.63
2019-05-16T10:23:18.268Z,1011.59
2019-05-16T10:24:18.064Z,1011.63
2019-05-16T10:25:19.564Z,1011.66
2019-05-16T10:26:19.424Z,1011.60
2019-05-16T10:27:17.984Z,1011.63
2019-05-16T10:28:20.017Z,1011.58
2019-05-16T10:29:18.622Z,1011.62
2019-05-16T10:30:17.980Z,1011.63
2019-05-16T10:31:18.080Z,1011.52
2019-05-16T10:32:17.937Z,1011.55
2019-05-16T10:33:19.200Z,1011.54
2019-05-16T10:34:17.907Z,1011.57
2019-05-16T10:35:17.918Z,1011.56
2019-05-16T10:36:21.609Z,1011.59
2019-05-16T10:37:17.927Z,1011.67
2019-05-16T10:38:17.876Z,1011.71
2019-05-16T10:39:17.850Z,1011.72
2019-05-16T10:40:18.354Z,1011.71
2019-05-16T10:41:17.838Z,1011.78
2019-05-16T10:42:28.119Z,1011.73
2019-05-16T10:43:18.807Z,1011.73
2019-05-16T10:44:17.848Z,1011.72
2019-05-16T10:45:17.800Z,1011.73
2019-05-16T10:46:17.956Z,1011.69
2019-05-16T10:47:17.769Z,1011.68
2019-05-16T10:48:17.818Z,1011.67
2019-05-16T10:49:32.805Z,1011.62
2019-05-16T10:50:18.787Z,1011.63
2019-05-16T10:51:17.724Z,1011.58
2019-05-16T10:52:17.746Z,1011.60
2019-05-16T10:53:41.840Z,1011.58
2019-05-16T10:54:18.989Z,1011.55
2019-05-16T10:55:17.953Z,1011.54
2019-05-16T10:56:17.686Z,1011.55
2019-05-16T10:57:17.713Z,1011.49
2019-05-16T10:58:35.052Z,1011.48
2019-05-16T10:59:57.917Z,1011.51
2019-05-16T11:00:45.877Z,1011.49
2019-05-16T11:01:27.084Z,1011.48
2019-05-16T11:02:18.800Z,1011.47
2019-05-16T11:03:17.591Z,1011.52
2019-05-16T11:04:28.631Z,1011.53
2019-05-16T11:05:29.971Z,1011.49
2019-05-16T11:06:25.905Z,1011.48
2019-05-16T11:07:18.551Z,1011.45
2019-05-16T11:08:17.539Z,1011.41
2019-05-16T11:09:17.561Z,1011.44
2019-05-16T11:10:17.561Z,1011.44
2019-05-16T11:11:19.865Z,1011.47
2019-05-16T11:12:20.450Z,1011.46
2019-05-16T11:13:20.332Z,1011.46
2019-05-16T11:14:17.583Z,1011.47
2019-05-16T11:15:17.480Z,1011.53
2019-05-16T11:16:17.542Z,1011.50
2019-05-16T11:17:19.080Z,1011.54
2019-05-16T11:18:17.661Z,1011.57
2019-05-16T11:19:23.661Z,1011.57
2019-05-16T11:20:20.068Z,1011.59
2019-05-16T11:21:19.323Z,1011.59
2019-05-16T11:22:17.385Z,1011.57
2019-05-16T11:23:22.907Z,1011.59
2019-05-16T11:24:18.425Z,1011.59
2019-05-16T11:25:27.954Z,1011.55
2019-05-16T11:26:18.342Z,1011.60
2019-05-16T11:27:17.329Z,1011.62
2019-05-16T11:28:17.842Z,1011.60
2019-05-16T11:29:17.309Z,1011.66
2019-05-16T11:30:18.198Z,1011.59
2019-05-16T11:31:17.725Z,1011.64
2019-05-16T11:32:17.270Z,1011.62
2019-05-16T11:33:17.610Z,1011.59
2019-05-16T11:34:17.478Z,1011.60
2019-05-16T11:35:17.449Z,1011.54
2019-05-16T11:36:17.242Z,1011.57
2019-05-16T11:37:17.794Z,1011.52
2019-05-16T11:38:17.921Z,1011.52
2019-05-16T11:39:17.461Z,1011.52
2019-05-16T11:40:17.917Z,1011.54
2019-05-16T11:41:17.204Z,1011.54
2019-05-16T11:42:17.656Z,1011.57
2019-05-16T11:43:21.033Z,1011.58
2019-05-16T11:44:17.749Z,1011.50
2019-05-16T11:45:17.142Z,1011.57
2019-05-16T11:46:17.134Z,1011.53
2019-05-16T11:47:17.125Z,1011.45
2019-05-16T11:48:17.338Z,1011.54
2019-05-16T11:49:17.118Z,1011.52
2019-05-16T11:50:17.870Z,1011.52
2019-05-16T11:51:17.527Z,1011.47
2019-05-16T11:52:18.070Z,1011.47
2019-05-16T11:53:17.647Z,1011.48
2019-05-16T11:54:17.043Z,1011.45
2019-05-16T11:55:17.033Z,1011.43
2019-05-16T11:56:17.021Z,1011.44
2019-05-16T11:57:17.938Z,1011.40
2019-05-16T11:58:17.933Z,1011.44
2019-05-16T11:59:16.978Z,1011.39
2019-05-16T12:00:18.169Z,1011.48
2019-05-16T12:01:16.969Z,1011.43
2019-05-16T12:02:17.491Z,1011.37
2019-05-16T12:03:17.223Z,1011.43
2019-05-16T12:04:17.543Z,1011.42
2019-05-16T12:05:17.336Z,1011.40